createdAt,value
2018-08-28T00:00:14.447Z,1003.09
2018-08-28T00:01:14.437Z,1003.04
2018-08-28T00:02:14.427Z,1003.04
2018-08-28T00:03:14.415Z,1002.99
2018-08-28T00:04:14.424Z,1003.02
2018-08-28T00:05:14.394Z,1003.05
2018-08-28T00:06:14.384Z,1003.02
2018-08-28T00:07:14.372Z,1003.02
2018-08-28T00:08:14.362Z,1002.96
2018-08-28T00:09:14.369Z,1003.00
2018-08-28T00:10:14.340Z,1002.98
2018-08-28T00:11:14.329Z,1003.02
2018-08-28T00:12:14.318Z,1003.01
2018-08-28T00:13:14.317Z,1002.99
2018-08-28T00:14:14.323Z,1003.02
2018-08-28T00:15:14.285Z,1003.00
2018-08-28T00:16:14.275Z,1002.96
2018-08-28T00:17:14.266Z,1002.99
2018-08-28T00:18:14.253Z,1002.99
2018-08-28T00:19:14.242Z,1002.98
2018-08-28T00:20:14.272Z,1002.97
2018-08-28T00:21:14.220Z,1003.00
2018-08-28T00:22:14.210Z,1003.00
2018-08-28T00:23:14.199Z,1002.99
2018-08-28T00:24:14.194Z,1003.00
2018-08-28T00:25:14.195Z,1002.97
2018-08-28T00:26:14.169Z,1003.01
2018-08-28T00:27:14.155Z,1002.99
2018-08-28T00:28:14.144Z,1003.00
2018-08-28T00:29:14.146Z,1003.00
2018-08-28T00:30:14.149Z,1003.03
2018-08-28T00:31:14.112Z,1003.06
2018-08-28T00:32:14.103Z,1003.04
2018-08-28T00:33:14.090Z,1003.05
2018-08-28T00:34:14.082Z,1003.05
2018-08-28T00:35:14.068Z,1003.04
2018-08-28T00:36:14.078Z,1003.03
2018-08-28T00:37:14.047Z,1003.07
2018-08-28T00:38:14.036Z,1003.07
2018-08-28T00:39:14.027Z,1003.07
2018-08-28T00:40:14.015Z,1003.15
2018-08-28T00:41:14.029Z,1003.11
2018-08-28T00:42:13.992Z,1003.18
2018-08-28T00:43:13.982Z,1003.12
2018-08-28T00:44:13.974Z,1003.13
2018-08-28T00:45:13.960Z,1003.13
2018-08-28T00:46:13.950Z,1003.12
2018-08-28T00:47:13.957Z,1003.13
2018-08-28T00:48:13.932Z,1003.16
2018-08-28T00:49:13.918Z,1003.15
2018-08-28T00:50:13.905Z,1003.16
2018-08-28T00:51:13.894Z,1003.15
2018-08-28T00:52:13.951Z,1003.15
2018-08-28T00:53:13.873Z,1003.19
2018-08-28T00:54:13.862Z,1003.22
2018-08-28T00:55:13.851Z,1003.23
2018-08-28T00:56:13.840Z,1003.17
2018-08-28T00:57:13.832Z,1003.21
2018-08-28T00:58:13.836Z,1003.23
2018-08-28T00:59:13.809Z,1003.25
2018-08-28T01:00:13.797Z,1003.25
2018-08-28T01:01:13.787Z,1003.25
2018-08-28T01:02:13.776Z,1003.27
2018-08-28T01:03:13.790Z,1003.24
2018-08-28T01:04:13.754Z,1003.27
2018-08-28T01:05:13.743Z,1003.28
2018-08-28T01:06:13.732Z,1003.27
2018-08-28T01:07:13.721Z,1003.25
2018-08-28T01:08:13.709Z,1003.28
2018-08-28T01:09:13.717Z,1003.26
2018-08-28T01:10:13.687Z,1003.28
2018-08-28T01:11:13.685Z,1003.28
2018-08-28T01:12:13.668Z,1003.28
2018-08-28T01:13:13.655Z,1003.28
2018-08-28T01:14:13.671Z,1003.28
2018-08-28T01:15:13.634Z,1003.30
2018-08-28T01:16:13.624Z,1003.27
2018-08-28T01:17:13.612Z,1003.33
2018-08-28T01:18:13.604Z,1003.31
2018-08-28T01:19:13.590Z,1003.30
2018-08-28T01:20:13.601Z,1003.36
2018-08-28T01:21:13.569Z,1003.35
2018-08-28T01:22:13.557Z,1003.35
2018-08-28T01:23:13.546Z,1003.33
2018-08-28T01:24:13.537Z,1003.34
2018-08-28T01:25:13.543Z,1003.35
2018-08-28T01:26:13.516Z,1003.33
2018-08-28T01:27:13.504Z,1003.30
2018-08-28T01:28:13.494Z,1003.29
2018-08-28T01:29:13.481Z,1003.30
2018-08-28T01:30:13.489Z,1003.30
2018-08-28T01:31:13.461Z,1003.27
2018-08-28T01:32:13.449Z,1003.29
2018-08-28T01:33:13.440Z,1003.29
2018-08-28T01:34:13.428Z,1003.28
2018-08-28T01:35:13.439Z,1003.28
2018-08-28T01:36:13.407Z,1003.28
2018-08-28T01:37:13.450Z,1003.27
2018-08-28T01:38:13.387Z,1003.30
2018-08-28T01:39:13.373Z,1003.27
2018-08-28T01:40:13.426Z,1003.29
2018-08-28T01:41:13.351Z,1003.31
2018-08-28T01:42:13.341Z,1003.28
2018-08-28T01:43:13.330Z,1003.28
2018-08-28T01:44:13.318Z,1003.29
2018-08-28T01:45:13.334Z,1003.36
2018-08-28T01:46:13.297Z,1003.31
2018-08-28T01:47:13.288Z,1003.34
2018-08-28T01:48:13.275Z,1003.33
2018-08-28T01:49:13.265Z,1003.31
2018-08-28T01:50:13.253Z,1003.33
2018-08-28T01:51:13.267Z,1003.30
2018-08-28T01:52:13.232Z,1003.37
2018-08-28T01:53:13.221Z,1003.36
2018-08-28T01:54:13.211Z,1003.35
2018-08-28T01:55:13.201Z,1003.34
2018-08-28T01:56:13.189Z,1003.33
2018-08-28T01:57:13.204Z,1003.38
2018-08-28T01:58:13.167Z,1003.32
2018-08-28T01:59:13.155Z,1003.36
2018-08-28T02:00:13.146Z,1003.32
2018-08-28T02:01:13.134Z,1003.38
2018-08-28T02:02:13.124Z,1003.35
2018-08-28T02:03:13.138Z,1003.32
2018-08-28T02:04:13.107Z,1003.33
2018-08-28T02:05:13.090Z,1003.33
2018-08-28T02:06:13.079Z,1003.35
2018-08-28T02:07:13.070Z,1003.37
2018-08-28T02:08:13.057Z,1003.37
2018-08-28T02:09:13.072Z,1003.35
2018-08-28T02:10:13.036Z,1003.36
2018-08-28T02:11:13.025Z,1003.35
2018-08-28T02:12:13.014Z,1003.34
2018-08-28T02:13:13.008Z,1003.37
2018-08-28T02:14:12.992Z,1003.30
2018-08-28T02:15:13.009Z,1003.34
2018-08-28T02:16:12.973Z,1003.35
2018-08-28T02:17:12.959Z,1003.36
2018-08-28T02:18:12.950Z,1003.35
2018-08-28T02:19:12.938Z,1003.31
2018-08-28T02:20:12.928Z,1003.34
2018-08-28T02:21:12.942Z,1003.36
2018-08-28T02:22:12.907Z,1003.35
2018-08-28T02:23:12.895Z,1003.34
2018-08-28T02:24:12.884Z,1003.35
2018-08-28T02:25:12.880Z,1003.35
2018-08-28T02:26:12.862Z,1003.38
2018-08-28T02:27:12.889Z,1003.35
2018-08-28T02:28:12.840Z,1003.32
2018-08-28T02:29:12.829Z,1003.33
2018-08-28T02:30:12.820Z,1003.33
2018-08-28T02:31:12.810Z,1003.33
2018-08-28T02:32:12.802Z,1003.36
2018-08-28T02:33:12.819Z,1003.35
2018-08-28T02:34:12.779Z,1003.35
2018-08-28T02:35:12.768Z,1003.38
2018-08-28T02:36:12.755Z,1003.35
2018-08-28T02:37:12.742Z,1003.39
2018-08-28T02:38:12.738Z,1003.35
2018-08-28T02:39:12.764Z,1003.34
2018-08-28T02:40:12.719Z,1003.36
2018-08-28T02:41:12.705Z,1003.35
2018-08-28T02:42:12.688Z,1003.33
2018-08-28T02:43:12.680Z,1003.35
2018-08-28T02:44:12.670Z,1003.36
2018-08-28T02:45:12.682Z,1003.33
2018-08-28T02:46:12.651Z,1003.34
2018-08-28T02:47:12.637Z,1003.35
2018-08-28T02:48:12.627Z,1003.35
2018-08-28T02:49:12.612Z,1003.36
2018-08-28T02:50:12.609Z,1003.39
2018-08-28T02:51:12.620Z,1003.39
2018-08-28T02:52:12.583Z,1003.37
2018-08-28T02:53:12.575Z,1003.34
2018-08-28T02:54:12.557Z,1003.38
2018-08-28T02:55:12.550Z,1003.35
2018-08-28T02:56:12.554Z,1003.37
2018-08-28T02:57:12.552Z,1003.35
2018-08-28T02:58:12.520Z,1003.42
2018-08-28T02:59:12.508Z,1003.41
2018-08-28T03:00:12.497Z,1003.41
2018-08-28T03:01:12.492Z,1003.43
2018-08-28T03:02:12.476Z,1003.39
2018-08-28T03:03:12.481Z,1003.40
2018-08-28T03:04:12.453Z,1003.40
2018-08-28T03:05:12.444Z,1003.47
2018-08-28T03:06:12.428Z,1003.43
2018-08-28T03:07:12.418Z,1003.45
2018-08-28T03:08:12.443Z,1003.43
2018-08-28T03:09:12.393Z,1003.43
2018-08-28T03:10:12.391Z,1003.45
2018-08-28T03:11:12.400Z,1003.44
2018-08-28T03:12:12.365Z,1003.43
2018-08-28T03:13:12.357Z,1003.44
2018-08-28T03:14:12.368Z,1003.44
2018-08-28T03:15:12.333Z,1003.44
2018-08-28T03:16:12.320Z,1003.45
2018-08-28T03:17:12.308Z,1003.45
2018-08-28T03:18:12.303Z,1003.45
2018-08-28T03:19:12.290Z,1003.40
2018-08-28T03:20:12.295Z,1003.46
2018-08-28T03:21:12.267Z,1003.47
2018-08-28T03:22:12.259Z,1003.47
2018-08-28T03:23:12.247Z,1003.46
2018-08-28T03:24:12.235Z,1003.45
2018-08-28T03:25:12.256Z,1003.46
2018-08-28T03:26:12.209Z,1003.45
2018-08-28T03:27:12.201Z,1003.45
2018-08-28T03:28:12.190Z,1003.50
2018-08-28T03:29:12.202Z,1003.45
2018-08-28T03:30:12.173Z,1003.42
2018-08-28T03:31:12.185Z,1003.45
2018-08-28T03:32:12.153Z,1003.48
2018-08-28T03:33:12.141Z,1003.48
2018-08-28T03:34:12.122Z,1003.46
2018-08-28T03:35:12.113Z,1003.45
2018-08-28T03:36:12.111Z,1003.44
2018-08-28T03:37:12.118Z,1003.49
2018-08-28T03:38:12.079Z,1003.51
2018-08-28T03:39:12.073Z,1003.48
2018-08-28T03:40:12.059Z,1003.52
2018-08-28T03:41:12.045Z,1003.49
2018-08-28T03:42:12.063Z,1003.47
2018-08-28T03:43:12.032Z,1003.49
2018-08-28T03:44:12.020Z,1003.50
2018-08-28T03:45:12.012Z,1003.50
2018-08-28T03:46:11.992Z,1003.57
2018-08-28T03:47:12.003Z,1003.57
2018-08-28T03:48:11.973Z,1003.54
2018-08-28T03:49:11.959Z,1003.63
2018-08-28T03:50:11.954Z,1003.59
2018-08-28T03:51:11.942Z,1003.60
2018-08-28T03:52:11.949Z,1003.61
2018-08-28T03:53:11.921Z,1003.63
2018-08-28T03:54:11.911Z,1003.61
2018-08-28T03:55:11.901Z,1003.59
2018-08-28T03:56:11.888Z,1003.60
2018-08-28T03:57:11.898Z,1003.61
2018-08-28T03:58:11.865Z,1003.64
2018-08-28T03:59:11.852Z,1003.62
2018-08-28T04:00:11.841Z,1003.63
2018-08-28T04:01:11.828Z,1003.65
2018-08-28T04:02:11.844Z,1003.67
2018-08-28T04:03:11.816Z,1003.68
2018-08-28T04:04:11.800Z,1003.69
2018-08-28T04:05:11.792Z,1003.73
2018-08-28T04:06:11.775Z,1003.68
2018-08-28T04:07:11.785Z,1003.66
2018-08-28T04:08:11.756Z,1003.67
2018-08-28T04:09:11.748Z,1003.69
2018-08-28T04:10:11.731Z,1003.69
2018-08-28T04:11:11.722Z,1003.68
2018-08-28T04:12:11.730Z,1003.68
2018-08-28T04:13:11.699Z,1003.72
2018-08-28T04:14:11.696Z,1003.71
2018-08-28T04:15:11.684Z,1003.72
2018-08-28T04:16:11.673Z,1003.68
2018-08-28T04:17:11.775Z,1003.68
2018-08-28T04:18:11.691Z,1003.71
2018-08-28T04:19:11.636Z,1003.71
2018-08-28T04:20:11.625Z,1003.72
2018-08-28T04:21:11.613Z,1003.72
2018-08-28T04:22:11.629Z,1003.72
2018-08-28T04:23:11.628Z,1003.69
2018-08-28T04:24:11.582Z,1003.73
2018-08-28T04:25:11.620Z,1003.72
2018-08-28T04:26:11.565Z,1003.74
2018-08-28T04:27:11.571Z,1003.77
2018-08-28T04:28:11.541Z,1003.76
2018-08-28T04:29:11.533Z,1003.81
2018-08-28T04:30:11.516Z,1003.77
2018-08-28T04:31:11.508Z,1003.77
2018-08-28T04:32:11.516Z,1003.81
2018-08-28T04:33:11.483Z,1003.79
2018-08-28T04:34:11.479Z,1003.79
2018-08-28T04:35:11.466Z,1003.80
2018-08-28T04:36:11.456Z,1003.80
2018-08-28T04:37:11.466Z,1003.81
2018-08-28T04:38:11.430Z,1003.84
2018-08-28T04:39:11.427Z,1003.85
2018-08-28T04:40:11.412Z,1003.85
2018-08-28T04:41:11.403Z,1003.86
2018-08-28T04:42:11.405Z,1003.83
2018-08-28T04:43:11.377Z,1003.87
2018-08-28T04:44:11.367Z,1003.85
2018-08-28T04:45:11.370Z,1003.85
2018-08-28T04:46:11.383Z,1003.86
2018-08-28T04:47:11.358Z,1003.84
2018-08-28T04:48:11.328Z,1003.86
2018-08-28T04:49:11.323Z,1003.86
2018-08-28T04:50:11.299Z,1003.89
2018-08-28T04:51:11.293Z,1003.86
2018-08-28T04:52:11.299Z,1003.90
2018-08-28T04:53:11.269Z,1003.93
2018-08-28T04:54:11.298Z,1003.95
2018-08-28T04:55:11.257Z,1003.96
2018-08-28T04:56:11.237Z,1003.94
2018-08-28T04:57:11.243Z,1003.95
2018-08-28T04:58:11.220Z,1003.97
2018-08-28T04:59:11.207Z,1004.00
2018-08-28T05:00:11.196Z,1003.97
2018-08-28T05:01:11.191Z,1004.00
2018-08-28T05:02:11.189Z,1004.00
2018-08-28T05:03:11.161Z,1004.00
2018-08-28T05:04:11.150Z,1003.94
2018-08-28T05:05:11.184Z,1003.98
2018-08-28T05:06:11.136Z,1003.96
2018-08-28T05:07:11.141Z,1003.99
2018-08-28T05:08:11.108Z,1004.04
2018-08-28T05:09:11.099Z,1003.99
2018-08-28T05:10:11.109Z,1004.01
2018-08-28T05:11:11.085Z,1004.05
2018-08-28T05:12:11.098Z,1004.08
2018-08-28T05:13:11.056Z,1004.07
2018-08-28T05:14:11.039Z,1004.02
2018-08-28T05:15:11.030Z,1004.07
2018-08-28T05:16:11.026Z,1004.05
2018-08-28T05:17:11.030Z,1004.07
2018-08-28T05:18:11.003Z,1004.10
2018-08-28T05:19:11.035Z,1004.09
2018-08-28T05:20:10.990Z,1004.07
2018-08-28T05:21:10.970Z,1004.09
2018-08-28T05:22:10.971Z,1004.12
2018-08-28T05:23:10.949Z,1004.17
2018-08-28T05:24:10.932Z,1004.16
2018-08-28T05:25:10.920Z,1004.18
2018-08-28T05:26:10.916Z,1004.19
2018-08-28T05:27:10.960Z,1004.18
2018-08-28T05:28:10.932Z,1004.17
2018-08-28T05:29:10.876Z,1004.21
2018-08-28T05:30:10.873Z,1004.20
2018-08-28T05:31:10.863Z,1004.18
2018-08-28T05:32:10.883Z,1004.18
2018-08-28T05:33:10.839Z,1004.14
2018-08-28T05:34:10.822Z,1004.17
2018-08-28T05:35:10.814Z,1004.19
2018-08-28T05:36:10.804Z,1004.22
2018-08-28T05:37:10.809Z,1004.19
2018-08-28T05:38:10.890Z,1004.20
2018-08-28T05:39:10.774Z,1004.23
2018-08-28T05:40:10.761Z,1004.21
2018-08-28T05:41:10.752Z,1004.22
2018-08-28T05:42:10.759Z,1004.21
2018-08-28T05:43:10.726Z,1004.22
2018-08-28T05:44:10.718Z,1004.26
2018-08-28T05:45:10.709Z,1004.18
2018-08-28T05:46:10.692Z,1004.19
2018-08-28T05:47:10.702Z,1004.22
2018-08-28T05:48:10.697Z,1004.20
2018-08-28T05:49:10.677Z,1004.22
2018-08-28T05:50:10.654Z,1004.21
2018-08-28T05:51:10.642Z,1004.22
2018-08-28T05:52:10.650Z,1004.22
2018-08-28T05:53:10.623Z,1004.24
2018-08-28T05:54:10.610Z,1004.23
2018-08-28T05:55:10.597Z,1004.24
2018-08-28T05:56:10.631Z,1004.33
2018-08-28T05:57:10.609Z,1004.34
2018-08-28T05:58:10.598Z,1004.33
2018-08-28T05:59:10.555Z,1004.33
2018-08-28T06:00:10.543Z,1004.33
2018-08-28T06:01:10.529Z,1004.37
2018-08-28T06:02:10.545Z,1004.35
2018-08-28T06:03:10.547Z,1004.35
2018-08-28T06:04:10.502Z,1004.36
2018-08-28T06:05:10.493Z,1004.37
2018-08-28T06:06:10.477Z,1004.36
2018-08-28T06:07:10.488Z,1004.35
2018-08-28T06:08:10.460Z,1004.38
2018-08-28T06:09:10.459Z,1004.32
2018-08-28T06:10:10.491Z,1004.35
2018-08-28T06:11:10.435Z,1004.35
2018-08-28T06:12:10.451Z,1004.39
2018-08-28T06:13:10.408Z,1004.41
2018-08-28T06:14:10.394Z,1004.40
2018-08-28T06:15:10.380Z,1004.43
2018-08-28T06:16:10.380Z,1004.45
2018-08-28T06:17:10.383Z,1004.43
2018-08-28T06:18:10.350Z,1004.42
2018-08-28T06:19:10.652Z,1004.43
2018-08-28T06:20:10.776Z,1004.40
2018-08-28T06:21:10.341Z,1004.44
2018-08-28T06:22:10.333Z,1004.47
2018-08-28T06:23:10.494Z,1004.51
2018-08-28T06:24:10.289Z,1004.51
2018-08-28T06:25:10.284Z,1004.57
2018-08-28T06:26:10.308Z,1004.58
2018-08-28T06:27:10.269Z,1004.58
2018-08-28T06:28:10.239Z,1004.60
2018-08-28T06:29:10.230Z,1004.64
2018-08-28T06:30:10.247Z,1004.66
2018-08-28T06:31:10.237Z,1004.70
2018-08-28T06:32:10.216Z,1004.64
2018-08-28T06:33:10.187Z,1004.68
2018-08-28T06:34:10.183Z,1004.70
2018-08-28T06:35:10.175Z,1004.72
2018-08-28T06:36:10.163Z,1004.72
2018-08-28T06:37:10.168Z,1004.77
2018-08-28T06:38:10.145Z,1004.73
2018-08-28T06:39:10.124Z,1004.78
2018-08-28T06:40:10.106Z,1004.78
2018-08-28T06:41:10.105Z,1004.80
2018-08-28T06:42:10.107Z,1004.79
2018-08-28T06:43:10.083Z,1004.82
2018-08-28T06:44:10.083Z,1004.83
2018-08-28T06:45:10.056Z,1004.81
2018-08-28T06:46:10.041Z,1004.80
2018-08-28T06:47:10.049Z,1004.79
2018-08-28T06:48:10.029Z,1004.82
2018-08-28T06:49:10.011Z,1004.78
2018-08-28T06:50:10.011Z,1004.79
2018-08-28T06:51:09.987Z,1004.86
2018-08-28T06:52:10.021Z,1004.78
2018-08-28T06:53:09.966Z,1004.83
2018-08-28T06:54:09.960Z,1004.80
2018-08-28T06:55:09.948Z,1004.81
2018-08-28T06:56:09.937Z,1004.81
2018-08-28T06:57:09.943Z,1004.85
2018-08-28T06:58:09.912Z,1004.81
2018-08-28T06:59:09.898Z,1004.82
2018-08-28T07:00:09.887Z,1004.84
2018-08-28T07:01:09.878Z,1004.86
2018-08-28T07:02:09.895Z,1004.90
2018-08-28T07:03:09.861Z,1004.89
2018-08-28T07:04:09.851Z,1004.89
2018-08-28T07:05:09.838Z,1004.88
2018-08-28T07:06:09.829Z,1004.85
2018-08-28T07:07:09.837Z,1004.88
2018-08-28T07:08:09.810Z,1004.91
2018-08-28T07:09:09.800Z,1004.94
2018-08-28T07:10:09.794Z,1004.94
2018-08-28T07:11:09.769Z,1004.93
2018-08-28T07:12:09.786Z,1004.97
2018-08-28T07:13:09.748Z,1004.99
2018-08-28T07:14:09.740Z,1004.96
2018-08-28T07:15:09.736Z,1004.95
2018-08-28T07:16:09.721Z,1005.00
2018-08-28T07:17:09.726Z,1004.99
2018-08-28T07:18:09.695Z,1004.94
2018-08-28T07:19:09.682Z,1004.99
2018-08-28T07:20:09.682Z,1004.99
2018-08-28T07:21:09.665Z,1005.03
2018-08-28T07:22:09.673Z,1005.04
2018-08-28T07:23:09.676Z,1005.10
2018-08-28T07:24:09.640Z,1005.04
2018-08-28T07:25:09.620Z,1005.08
2018-08-28T07:26:09.690Z,1005.05
2018-08-28T07:27:09.630Z,1005.04
2018-08-28T07:28:09.593Z,1005.03
2018-08-28T07:29:09.600Z,1005.06
2018-08-28T07:30:09.580Z,1005.01
2018-08-28T07:31:09.585Z,1005.01
2018-08-28T07:32:09.582Z,1005.06
2018-08-28T07:33:09.533Z,1005.10
2018-08-28T07:34:09.524Z,1005.08
2018-08-28T07:35:09.550Z,1005.06
2018-08-28T07:36:09.504Z,1005.07
2018-08-28T07:37:09.518Z,1005.12
2018-08-28T07:38:09.490Z,1005.10
2018-08-28T07:39:09.477Z,1005.12
2018-08-28T07:40:09.463Z,1005.11
2018-08-28T07:41:09.451Z,1005.16
2018-08-28T07:42:09.455Z,1005.13
2018-08-28T07:43:09.425Z,1005.13
2018-08-28T07:44:09.413Z,1005.11
2018-08-28T07:45:09.405Z,1005.15
2018-08-28T07:46:09.400Z,1005.15
2018-08-28T07:47:09.407Z,1005.14
2018-08-28T07:48:09.380Z,1005.17
2018-08-28T07:49:09.364Z,1005.16
2018-08-28T07:50:09.357Z,1005.14
2018-08-28T07:51:09.341Z,1005.16
2018-08-28T07:52:09.372Z,1005.12
2018-08-28T07:53:09.322Z,1005.13
2018-08-28T07:54:09.308Z,1005.08
2018-08-28T07:55:09.294Z,1005.10
2018-08-28T07:56:09.283Z,1005.12
2018-08-28T07:57:09.295Z,1005.12
2018-08-28T07:58:09.267Z,1005.13
2018-08-28T07:59:09.258Z,1005.14
2018-08-28T08:00:09.248Z,1005.15
2018-08-28T08:01:09.247Z,1005.15
2018-08-28T08:02:09.244Z,1005.14
2018-08-28T08:03:09.208Z,1005.11
2018-08-28T08:04:09.197Z,1005.08
2018-08-28T08:05:09.189Z,1005.11
2018-08-28T08:06:09.181Z,1005.15
2018-08-28T08:07:09.192Z,1005.17
2018-08-28T08:08:09.154Z,1005.16
2018-08-28T08:09:09.147Z,1005.15
2018-08-28T08:10:09.139Z,1005.21
2018-08-28T08:11:09.130Z,1005.23
2018-08-28T08:12:09.148Z,1005.17
2018-08-28T08:13:09.115Z,1005.15
2018-08-28T08:14:09.093Z,1005.15
2018-08-28T08:15:09.081Z,1005.21
2018-08-28T08:16:09.122Z,1005.22
2018-08-28T08:17:09.061Z,1005.26
2018-08-28T08:18:09.073Z,1005.21
2018-08-28T08:19:09.045Z,1005.24
2018-08-28T08:20:09.038Z,1005.24
2018-08-28T08:21:09.021Z,1005.24
2018-08-28T08:22:09.024Z,1005.21
2018-08-28T08:23:09.014Z,1005.21
2018-08-28T08:24:08.993Z,1005.17
2018-08-28T08:25:08.979Z,1005.16
2018-08-28T08:26:08.965Z,1005.20
2018-08-28T08:27:08.953Z,1005.18
2018-08-28T08:28:09.075Z,1005.20
2018-08-28T08:29:08.933Z,1005.17
2018-08-28T08:30:08.927Z,1005.19
2018-08-28T08:31:08.915Z,1005.13
2018-08-28T08:32:08.907Z,1005.15
2018-08-28T08:33:08.918Z,1005.14
2018-08-28T08:34:08.881Z,1005.17
2018-08-28T08:35:08.925Z,1005.17
2018-08-28T08:36:08.866Z,1005.17
2018-08-28T08:37:08.852Z,1005.17
2018-08-28T08:38:08.862Z,1005.20
2018-08-28T08:39:08.840Z,1005.20
2018-08-28T08:40:08.817Z,1005.17
2018-08-28T08:41:08.815Z,1005.20
2018-08-28T08:42:08.949Z,1005.18
2018-08-28T08:43:08.812Z,1005.19
2018-08-28T08:44:08.781Z,1005.15
2018-08-28T08:45:08.773Z,1005.19
2018-08-28T08:46:08.756Z,1005.22
2018-08-28T08:47:08.746Z,1005.18
2018-08-28T08:48:08.752Z,1005.17
2018-08-28T08:49:08.725Z,1005.20
2018-08-28T08:50:08.722Z,1005.15
2018-08-28T08:51:08.710Z,1005.16
2018-08-28T08:52:08.692Z,1005.14
2018-08-28T08:53:08.706Z,1005.16
2018-08-28T08:54:08.680Z,1005.17
2018-08-28T08:55:08.683Z,1005.20
2018-08-28T08:56:08.672Z,1005.19
2018-08-28T08:57:08.685Z,1005.11
2018-08-28T08:58:08.650Z,1005.13
2018-08-28T08:59:08.619Z,1005.13
2018-08-28T09:00:08.604Z,1005.18
2018-08-28T09:01:08.596Z,1005.15
2018-08-28T09:02:08.594Z,1005.16
2018-08-28T09:03:08.602Z,1005.15
2018-08-28T09:04:08.569Z,1005.19
2018-08-28T09:05:08.572Z,1005.23
2018-08-28T09:06:08.610Z,1005.21
2018-08-28T09:07:08.528Z,1005.19
2018-08-28T09:08:08.536Z,1005.22
2018-08-28T09:09:08.511Z,1005.20
2018-08-28T09:10:08.503Z,1005.16
2018-08-28T09:11:08.492Z,1005.17
2018-08-28T09:12:08.526Z,1005.12
2018-08-28T09:13:08.492Z,1005.15
2018-08-28T09:14:08.456Z,1005.12
2018-08-28T09:15:08.454Z,1005.12
2018-08-28T09:16:08.437Z,1005.15
2018-08-28T09:17:08.426Z,1005.13
2018-08-28T09:18:08.449Z,1005.13
2018-08-28T09:19:08.396Z,1005.16
2018-08-28T09:20:08.387Z,1005.16
2018-08-28T09:21:08.380Z,1005.10
2018-08-28T09:22:08.368Z,1005.12
2018-08-28T09:23:08.379Z,1005.16
2018-08-28T09:24:08.362Z,1005.12
2018-08-28T09:25:08.347Z,1005.14
2018-08-28T09:26:08.322Z,1005.12
2018-08-28T09:27:08.310Z,1005.09
2018-08-28T09:28:08.325Z,1005.11
2018-08-28T09:29:08.294Z,1005.11
2018-08-28T09:30:08.280Z,1005.09
2018-08-28T09:31:08.285Z,1005.09
2018-08-28T09:32:08.280Z,1005.06
2018-08-28T09:33:08.271Z,1005.03
2018-08-28T09:34:08.243Z,1005.05
2018-08-28T09:35:08.234Z,1005.06
2018-08-28T09:36:08.227Z,1005.07
2018-08-28T09:37:08.211Z,1005.13
2018-08-28T09:38:08.252Z,1005.09
2018-08-28T09:39:08.201Z,1005.15
2018-08-28T09:40:08.174Z,1005.10
2018-08-28T09:41:08.165Z,1005.03
2018-08-28T09:42:08.156Z,1005.06
2018-08-28T09:43:08.166Z,1005.08
2018-08-28T09:44:08.130Z,1005.05
2018-08-28T09:45:08.121Z,1005.02
2018-08-28T09:46:08.112Z,1005.03
2018-08-28T09:47:08.104Z,1005.06
2018-08-28T09:48:08.144Z,1005.04
2018-08-28T09:49:08.081Z,1005.04
2018-08-28T09:50:08.103Z,1005.03
2018-08-28T09:51:08.149Z,1005.05
2018-08-28T09:52:08.056Z,1005.05
2018-08-28T09:53:08.035Z,1005.07
2018-08-28T09:54:08.048Z,1005.06
2018-08-28T09:55:08.018Z,1005.09
2018-08-28T09:56:08.014Z,1005.07
2018-08-28T09:57:07.994Z,1005.09
2018-08-28T09:58:07.984Z,1005.09
2018-08-28T09:59:07.992Z,1005.08
2018-08-28T10:00:07.974Z,1005.09
2018-08-28T10:01:07.952Z,1005.12
2018-08-28T10:02:07.939Z,1005.10
2018-08-28T10:03:07.927Z,1005.11
2018-08-28T10:04:07.937Z,1005.08
2018-08-28T10:05:07.908Z,1005.07
2018-08-28T10:06:07.899Z,1005.12
2018-08-28T10:07:07.892Z,1005.14
2018-08-28T10:08:07.884Z,1005.12
2018-08-28T10:09:07.888Z,1005.10
2018-08-28T10:10:07.856Z,1005.08
2018-08-28T10:11:07.844Z,1005.07
2018-08-28T10:12:07.833Z,1005.09
2018-08-28T10:13:07.826Z,1005.09
2018-08-28T10:14:07.839Z,1005.05
2018-08-28T10:15:07.807Z,1005.06
2018-08-28T10:16:07.791Z,1005.03
2018-08-28T10:17:07.782Z,1005.00
2018-08-28T10:18:07.776Z,1005.06
2018-08-28T10:19:07.786Z,1004.99
2018-08-28T10:20:07.757Z,1005.01
2018-08-28T10:21:07.749Z,1005.03
2018-08-28T10:22:07.729Z,1005.00
2018-08-28T10:23:07.718Z,1005.02
2018-08-28T10:24:07.731Z,1005.01
2018-08-28T10:25:07.698Z,1005.04
2018-08-28T10:26:07.814Z,1005.01
2018-08-28T10:27:07.688Z,1004.99
2018-08-28T10:28:07.671Z,1005.05
2018-08-28T10:29:07.679Z,1005.01
2018-08-28T10:30:07.641Z,1005.03
2018-08-28T10:31:07.633Z,1004.97
2018-08-28T10:32:07.624Z,1005.00
2018-08-28T10:33:07.618Z,1004.98
2018-08-28T10:34:07.616Z,1004.97
2018-08-28T10:35:07.590Z,1005.01
2018-08-28T10:36:07.587Z,1004.93
2018-08-28T10:37:07.579Z,1004.90
2018-08-28T10:38:07.572Z,1004.91
2018-08-28T10:39:07.572Z,1004.90
2018-08-28T10:40:07.565Z,1004.92
2018-08-28T10:41:07.530Z,1004.87
2018-08-28T10:42:07.532Z,1004.85
2018-08-28T10:43:07.507Z,1004.81
2018-08-28T10:44:07.515Z,1004.83
2018-08-28T10:45:07.482Z,1004.82
2018-08-28T10:46:07.556Z,1004.85
2018-08-28T10:47:07.468Z,1004.87
2018-08-28T10:48:07.453Z,1004.87
2018-08-28T10:49:07.465Z,1004.87
2018-08-28T10:50:07.436Z,1004.82
2018-08-28T10:51:07.422Z,1004.82
2018-08-28T10:52:07.419Z,1004.78
2018-08-28T10:53:07.405Z,1004.83
2018-08-28T10:54:07.405Z,1004.77
2018-08-28T10:55:07.389Z,1004.80
2018-08-28T10:56:07.371Z,1004.78
2018-08-28T10:57:07.357Z,1004.79
2018-08-28T10:58:07.352Z,1004.78
2018-08-28T10:59:07.360Z,1004.78
2018-08-28T11:00:07.336Z,1004.78
2018-08-28T11:01:07.332Z,1004.72
2018-08-28T11:02:07.302Z,1004.74
2018-08-28T11:03:07.299Z,1004.71
2018-08-28T11:04:07.325Z,1004.72
2018-08-28T11:05:07.282Z,1004.72
2018-08-28T11:06:07.261Z,1004.69
2018-08-28T11:07:07.256Z,1004.69
2018-08-28T11:08:07.256Z,1004.64
2018-08-28T11:09:07.248Z,1004.64
2018-08-28T11:10:07.227Z,1004.63
2018-08-28T11:11:07.218Z,1004.68
2018-08-28T11:12:07.205Z,1004.66
2018-08-28T11:13:07.213Z,1004.69
2018-08-28T11:14:07.207Z,1004.70
2018-08-28T11:15:07.170Z,1004.69
2018-08-28T11:16:07.173Z,1004.64
2018-08-28T11:17:07.146Z,1004.66
2018-08-28T11:18:07.149Z,1004.66
2018-08-28T11:19:07.154Z,1004.65
2018-08-28T11:20:07.137Z,1004.68
2018-08-28T11:21:07.105Z,1004.75
2018-08-28T11:22:07.102Z,1004.71
2018-08-28T11:23:07.088Z,1004.69
2018-08-28T11:24:07.080Z,1004.67
2018-08-28T11:25:07.121Z,1004.78
2018-08-28T11:26:07.067Z,1004.75
2018-08-28T11:27:07.044Z,1004.73
2018-08-28T11:28:07.033Z,1004.76
2018-08-28T11:29:07.023Z,1004.82
2018-08-28T11:30:07.073Z,1004.77
2018-08-28T11:31:07.024Z,1004.76
2018-08-28T11:32:06.993Z,1004.72
2018-08-28T11:33:06.988Z,1004.75
2018-08-28T11:34:06.970Z,1004.75
2018-08-28T11:35:06.978Z,1004.74
2018-08-28T11:36:06.957Z,1004.83
2018-08-28T11:37:06.945Z,1004.84
2018-08-28T11:38:06.929Z,1004.95
2018-08-28T11:39:06.923Z,1005.00
2018-08-28T11:40:06.929Z,1005.08
2018-08-28T11:41:06.898Z,1005.12
2018-08-28T11:42:06.899Z,1005.15
2018-08-28T11:43:06.882Z,1005.18
2018-08-28T11:44:06.872Z,1005.18
2018-08-28T11:45:06.891Z,1005.14
2018-08-28T11:46:06.876Z,1005.11
2018-08-28T11:47:06.844Z,1005.11
2018-08-28T11:48:06.841Z,1005.06
2018-08-28T11:49:06.823Z,1005.08
2018-08-28T11:50:06.836Z,1005.01
2018-08-28T11:51:06.803Z,1005.00
2018-08-28T11:52:06.794Z,1005.08
2018-08-28T11:53:06.831Z,1005.10
2018-08-28T11:54:06.776Z,1005.09
2018-08-28T11:55:06.786Z,1004.96
2018-08-28T11:56:06.753Z,1005.09
2018-08-28T11:57:06.749Z,1004.96
2018-08-28T11:58:06.737Z,1005.08
2018-08-28T11:59:06.723Z,1005.04
2018-08-28T12:00:06.733Z,1004.95
2018-08-28T12:01:06.701Z,1004.91
2018-08-28T12:02:06.782Z,1004.88
2018-08-28T12:03:06.685Z,1004.77
2018-08-28T12:04:06.676Z,1004.77
2018-08-28T12:05:06.781Z,1004.74